»·PEaware :: AAL1499 EGLL-KORD

AAL1499 :: EGLL-KORD

FLIGHT INFORMATION

Flight Status: Arrived
Operator:
American Airlines
More flights by this operator :: More flights under this callsign
Pilot: Kyle K. (11122)
Aircraft: BOEING 767-300
(B763)
More flights by this aircraft type
Origin: EGLL Heathrow
United Kingdom
Destination: KORD Chicago-O'Hare Intl
United States
More flights between these airports :: More routes between these airports
Route: CPT4K CPT UL9 KENET UN14 BAKUR/M079F340 VENER ENNSO/N0464F340 N620B YBC/N0460F360 VBS/N0458F380 KAPUX HOCKE FNT PAITN4
File this flight plan on PilotEdge
Remarks: PBN / A1B1C1D1L1O1 DOF / 170925 REG / N619SB EET / EISN0031 EGGX0114 CZQX0231 CZUL0530 CZYZ0659 KZOB0736 KZAU0755 OPR / AAL RALT / EGPO BGSF RMK / TCAS SIMBRIEF
Altitude:
(Current/Filed)
34,000ft
Speed:
(Current/Filed)
451kts
Departed: 25-Sep-17 01:19 AM
Arrived: 25-Sep-17 09:26 AM
Distance/Time
Traveled:
3423nm/8:06
Distance/Time
To Go:
Arrived

Flight Plot

Page will automatically refresh every two minutes.

Flight plan parsing failed; only flown route is shown


Map Options




Map Legend


Flown Route
Filed Route
Departure Airport
Arrival Airport
Navaid (VOR, NDB)
Fix

Horizontal Profiles

Position Reports

Time Latitude Longitude Heading Altitude Ground
Speed
25-Sep-17 01:21 51.461199 -0.952082 278 10799ft 366kts
25-Sep-17 01:23 51.496480 -1.259200 278 11655ft 376kts
25-Sep-17 01:24 51.516489 -1.421677 277 15061ft 385kts
25-Sep-17 01:25 51.554690 -1.577337 289 17781ft 405kts
25-Sep-17 01:26 51.586550 -1.692612 288 19674ft 414kts
25-Sep-17 01:27 51.631856 -1.857231 288 22090ft 426kts
25-Sep-17 01:28 51.677977 -2.025967 288 24258ft 438kts
25-Sep-17 01:29 51.724446 -2.197383 288 26221ft 448kts
25-Sep-17 01:30 51.771823 -2.373757 288 28006ft 458kts
25-Sep-17 01:31 51.818548 -2.558562 279 29652ft 460kts
25-Sep-17 01:32 51.844134 -2.740165 276 31269ft 462kts
25-Sep-17 01:33 51.870393 -2.934147 276 33382ft 451kts
25-Sep-17 01:34 51.895843 -3.127569 275 34121ft 451kts
25-Sep-17 01:35 51.921063 -3.321649 275 34109ft 448kts
25-Sep-17 01:36 51.946252 -3.517810 275 34099ft 448kts
25-Sep-17 01:37 51.970662 -3.710446 275 34110ft 448kts
25-Sep-17 01:38 51.995221 -3.906934 275 34108ft 448kts
25-Sep-17 01:39 52.019546 -4.104409 275 34107ft 448kts
25-Sep-17 01:40 52.043617 -4.302778 274 34109ft 448kts
25-Sep-17 01:41 52.067291 -4.500766 274 34103ft 449kts
25-Sep-17 01:42 52.090554 -4.698346 274 34110ft 447kts
25-Sep-17 01:43 52.113218 -4.893269 274 34096ft 448kts
25-Sep-17 01:44 52.136147 -5.093214 273 34097ft 452kts
25-Sep-17 01:45 52.168375 -5.291504 287 34051ft 452kts
25-Sep-17 01:46 52.204315 -5.480928 287 34148ft 437kts
25-Sep-17 01:47 52.240004 -5.669372 290 34204ft 438kts
25-Sep-17 01:48 52.291468 -5.848767 294 34213ft 439kts
25-Sep-17 01:49 52.344129 -6.028898 295 34210ft 438kts
25-Sep-17 01:50 52.396358 -6.208628 295 34207ft 438kts
25-Sep-17 01:51 52.448160 -6.388229 295 34206ft 438kts
25-Sep-17 01:52 52.499873 -6.568881 295 34206ft 438kts
25-Sep-17 01:53 52.550918 -6.748604 294 34210ft 439kts
25-Sep-17 01:54 52.602084 -6.930115 294 34210ft 438kts
25-Sep-17 01:55 52.652947 -7.111851 293 34210ft 437kts
25-Sep-17 01:56 52.703400 -7.293721 292 34208ft 437kts
25-Sep-17 01:57 52.753554 -7.475927 292 34207ft 437kts
25-Sep-17 01:58 52.803326 -7.658130 292 34208ft 437kts
25-Sep-17 01:59 52.852497 -7.839551 292 34197ft 437kts
25-Sep-17 02:00 52.901731 -8.022635 292 34181ft 437kts
25-Sep-17 02:01 52.950818 -8.206646 291 34180ft 437kts
25-Sep-17 02:02 52.999616 -8.391073 291 34183ft 439kts
25-Sep-17 02:03 53.048507 -8.577348 291 34182ft 442kts
25-Sep-17 02:04 53.095853 -8.759208 290 34183ft 444kts
25-Sep-17 02:05 53.143893 -8.945254 290 34181ft 446kts
25-Sep-17 02:06 53.192449 -9.134831 289 34180ft 447kts
25-Sep-17 02:07 53.240882 -9.325681 289 34175ft 446kts
25-Sep-17 02:08 53.288932 -9.516589 289 34179ft 447kts
25-Sep-17 02:09 53.336485 -9.707144 288 34184ft 447kts
25-Sep-17 02:10 53.383986 -9.899125 288 34183ft 447kts
25-Sep-17 02:11 53.431024 -10.090938 288 34179ft 446kts
25-Sep-17 02:12 53.477906 -10.283750 288 34176ft 447kts
25-Sep-17 02:13 53.524520 -10.477201 288 34176ft 447kts
25-Sep-17 02:14 53.570612 -10.670230 288 34180ft 446kts
25-Sep-17 02:15 53.616488 -10.863980 288 34187ft 446kts
25-Sep-17 02:16 53.661414 -11.055445 287 34180ft 438kts
25-Sep-17 02:17 53.705923 -11.246969 287 34183ft 439kts
25-Sep-17 02:18 53.750139 -11.438876 287 34179ft 439kts
25-Sep-17 02:19 53.794021 -11.631067 287 34176ft 438kts
25-Sep-17 02:20 53.837402 -11.822832 286 34184ft 439kts
25-Sep-17 02:21 53.880718 -12.016001 287 34183ft 438kts
25-Sep-17 02:22 53.923601 -12.209067 286 34179ft 439kts
25-Sep-17 02:23 53.966144 -12.402398 286 34182ft 438kts
25-Sep-17 02:24 54.008510 -12.596713 286 34181ft 439kts
25-Sep-17 02:25 54.050421 -12.790766 286 34188ft 438kts
25-Sep-17 02:26 54.092071 -12.985447 285 34186ft 438kts
25-Sep-17 02:27 54.132891 -13.177810 284 34175ft 427kts
25-Sep-17 02:28 54.172755 -13.367987 284 34183ft 427kts
25-Sep-17 02:29 54.212354 -13.558477 284 34172ft 426kts
25-Sep-17 02:30 54.251670 -13.749395 283 34183ft 426kts
25-Sep-17 02:31 54.290680 -13.940633 283 34180ft 427kts
25-Sep-17 02:32 54.329416 -14.132432 284 34178ft 426kts
25-Sep-17 02:33 54.367856 -14.324529 283 34177ft 426kts
25-Sep-17 02:34 54.405829 -14.516229 283 34174ft 426kts
25-Sep-17 02:35 54.443655 -14.709113 282 34189ft 426kts
25-Sep-17 02:36 54.481146 -14.902177 282 34190ft 426kts
25-Sep-17 02:37 54.519640 -15.093781 283 34181ft 426kts
25-Sep-17 02:38 54.559384 -15.285940 283 34179ft 426kts
25-Sep-17 02:39 54.598756 -15.477878 283 34176ft 426kts
25-Sep-17 02:40 54.637951 -15.670781 282 34183ft 425kts
25-Sep-17 02:41 54.676663 -15.863135 282 34184ft 426kts
25-Sep-17 02:42 54.715189 -16.056485 282 34182ft 425kts
25-Sep-17 02:43 54.753418 -16.250265 282 34182ft 425kts
25-Sep-17 02:44 54.791273 -16.444088 282 34180ft 426kts
25-Sep-17 02:45 54.828701 -16.637772 282 34177ft 425kts
25-Sep-17 02:46 54.865828 -16.831630 282 34187ft 424kts
25-Sep-17 02:47 54.902712 -17.026117 281 34183ft 427kts
25-Sep-17 02:48 54.939769 -17.223906 281 34188ft 435kts
25-Sep-17 02:49 54.977192 -17.425668 281 34185ft 442kts
25-Sep-17 02:50 55.014797 -17.630587 281 34183ft 449kts
25-Sep-17 02:51 55.052506 -17.838340 280 34136ft 453kts
25-Sep-17 02:52 55.090051 -18.047472 280 33944ft 451kts
25-Sep-17 02:53 55.127138 -18.256566 280 33934ft 452kts
25-Sep-17 02:54 55.163910 -18.466267 280 33929ft 453kts
25-Sep-17 02:55 55.199889 -18.673817 280 33937ft 452kts
25-Sep-17 02:56 55.235923 -18.884172 279 33937ft 452kts
25-Sep-17 02:57 55.271660 -19.095285 279 33934ft 453kts
25-Sep-17 02:58 55.307237 -19.308017 279 33935ft 456kts
25-Sep-17 02:59 55.342444 -19.521112 279 33935ft 456kts
25-Sep-17 03:00 55.377184 -19.734032 278 33940ft 455kts
25-Sep-17 03:01 55.411611 -19.947677 278 33941ft 455kts
25-Sep-17 03:02 55.445742 -20.162141 279 33937ft 455kts
25-Sep-17 03:03 55.479482 -20.376877 278 33937ft 455kts
25-Sep-17 03:04 55.512865 -20.592133 278 33937ft 455kts
25-Sep-17 03:05 55.545816 -20.807380 278 33939ft 455kts
25-Sep-17 03:06 55.578282 -21.022382 278 33940ft 456kts
25-Sep-17 03:07 55.610704 -21.239830 278 33939ft 458kts
25-Sep-17 03:08 55.642726 -21.457552 278 33939ft 458kts
25-Sep-17 03:09 55.674409 -21.676017 277 33942ft 458kts
25-Sep-17 03:10 55.705585 -21.893942 277 33943ft 457kts
25-Sep-17 03:11 55.731322 -22.076211 277 33941ft 457kts
25-Sep-17 03:12 55.761785 -22.294793 277 33942ft 458kts
25-Sep-17 03:13 55.791992 -22.514661 277 33940ft 458kts
25-Sep-17 03:14 55.821709 -22.734151 277 33943ft 457kts
25-Sep-17 03:15 55.851040 -22.954178 277 33944ft 458kts
25-Sep-17 03:16 55.880073 -23.174993 277 33937ft 459kts
25-Sep-17 03:17 55.908601 -23.395375 277 33908ft 458kts
25-Sep-17 03:18 55.936788 -23.616520 277 33888ft 458kts
25-Sep-17 03:19 55.964595 -23.838101 277 33890ft 458kts
25-Sep-17 03:20 55.992001 -24.059995 277 33890ft 458kts
25-Sep-17 03:21 56.019046 -24.282524 277 33889ft 458kts
25-Sep-17 03:22 56.045596 -24.504574 277 33889ft 458kts
25-Sep-17 03:23 56.071764 -24.727062 276 33892ft 457kts
25-Sep-17 03:24 56.097588 -24.950330 276 33891ft 458kts
25-Sep-17 03:25 56.122931 -25.173518 277 33882ft 458kts
25-Sep-17 03:26 56.147968 -25.397326 277 33880ft 459kts
25-Sep-17 03:27 56.172543 -25.621104 277 33880ft 459kts
25-Sep-17 03:28 56.196715 -25.845242 276 33882ft 458kts
25-Sep-17 03:29 56.220510 -26.069918 276 33882ft 458kts
25-Sep-17 03:30 56.243884 -26.294748 276 33882ft 458kts
25-Sep-17 03:31 56.266865 -26.519986 276 33881ft 459kts
25-Sep-17 03:32 56.289405 -26.745195 275 33884ft 458kts
25-Sep-17 03:33 56.311545 -26.970901 276 33884ft 458kts
25-Sep-17 03:34 56.333267 -27.196642 276 33883ft 457kts
25-Sep-17 03:35 56.354468 -27.421302 276 33882ft 457kts
25-Sep-17 03:36 56.375335 -27.647155 276 33882ft 457kts
25-Sep-17 03:37 56.395717 -27.872430 275 33885ft 456kts
25-Sep-17 03:38 56.415742 -28.098534 275 33884ft 457kts
25-Sep-17 03:39 56.435358 -28.324912 275 33884ft 456kts
25-Sep-17 03:40 56.454586 -28.551791 275 33882ft 456kts
25-Sep-17 03:41 56.473034 -28.774483 274 33885ft 456kts
25-Sep-17 03:42 56.491311 -29.000337 275 33885ft 454kts
25-Sep-17 03:43 56.509190 -29.226303 275 33885ft 454kts
25-Sep-17 03:44 56.526659 -29.452584 275 33883ft 454kts
25-Sep-17 03:45 56.543717 -29.679078 274 33885ft 454kts
25-Sep-17 03:46 56.560259 -29.904404 274 33884ft 451kts
25-Sep-17 03:47 56.576363 -30.129431 274 33885ft 452kts
25-Sep-17 03:48 56.592083 -30.355022 274 33884ft 452kts
25-Sep-17 03:49 56.607431 -30.581329 274 33883ft 452kts
25-Sep-17 03:50 56.622327 -30.807185 274 33850ft 452kts
25-Sep-17 03:51 56.636821 -31.033371 274 33721ft 450kts
25-Sep-17 03:52 56.650820 -31.258309 274 33722ft 448kts
25-Sep-17 03:53 56.664396 -31.483137 274 33722ft 448kts
25-Sep-17 03:54 56.677580 -31.708359 273 33726ft 448kts
25-Sep-17 03:55 56.690328 -31.933131 273 33724ft 448kts
25-Sep-17 03:56 56.702710 -32.158872 273 33723ft 448kts
25-Sep-17 03:57 56.714640 -32.383899 273 33722ft 448kts
25-Sep-17 03:58 56.726193 -32.609632 273 33722ft 448kts
25-Sep-17 03:59 56.737331 -32.835354 272 33724ft 448kts
25-Sep-17 04:00 56.748074 -33.061380 272 33724ft 448kts
25-Sep-17 04:01 56.758341 -33.286240 272 33723ft 447kts
25-Sep-17 04:02 56.768238 -33.511994 272 33722ft 447kts
25-Sep-17 04:03 56.777744 -33.738254 271 33726ft 447kts
25-Sep-17 04:04 56.786796 -33.963439 271 33724ft 447kts
25-Sep-17 04:05 56.795477 -34.189702 271 33724ft 447kts
25-Sep-17 04:06 56.803732 -34.415590 271 33723ft 447kts
25-Sep-17 04:07 56.811588 -34.641876 271 33722ft 447kts
25-Sep-17 04:08 56.819029 -34.867859 270 33725ft 447kts
25-Sep-17 04:09 56.826072 -35.094201 270 33725ft 448kts
25-Sep-17 04:10 56.832705 -35.321398 270 33723ft 448kts
25-Sep-17 04:11 56.838924 -35.548164 270 33723ft 448kts
25-Sep-17 04:12 56.844742 -35.775343 269 33725ft 448kts
25-Sep-17 04:13 56.850129 -36.001746 269 33725ft 448kts
25-Sep-17 04:14 56.855124 -36.229168 269 33724ft 448kts
25-Sep-17 04:15 56.859698 -36.456203 269 33723ft 448kts
25-Sep-17 04:16 56.863853 -36.682961 268 33726ft 448kts
25-Sep-17 04:17 56.867616 -36.910691 268 33725ft 448kts
25-Sep-17 04:18 56.870944 -37.137771 268 33725ft 449kts
25-Sep-17 04:19 56.873892 -37.366415 268 33723ft 450kts
25-Sep-17 04:20 56.876409 -37.594266 268 33723ft 450kts
25-Sep-17 04:21 56.878517 -37.822799 267 33600ft 450kts
25-Sep-17 04:22 56.880201 -38.050170 267 33455ft 448kts
25-Sep-17 04:23 56.881472 -38.278310 267 33454ft 449kts
25-Sep-17 04:24 56.882329 -38.506714 267 33453ft 449kts
25-Sep-17 04:25 56.882766 -38.731015 267 33456ft 449kts
25-Sep-17 04:26 56.882788 -38.958870 267 33455ft 448kts
25-Sep-17 04:27 56.882402 -39.185722 268 33454ft 448kts
25-Sep-17 04:28 56.881621 -39.413821 268 33453ft 448kts
25-Sep-17 04:29 56.880411 -39.641792 268 33452ft 448kts
25-Sep-17 04:30 56.878797 -39.868545 267 33454ft 448kts
25-Sep-17 04:31 56.876759 -40.096422 267 33454ft 448kts
25-Sep-17 04:32 56.874313 -40.323664 267 33453ft 448kts
25-Sep-17 04:33 56.871452 -40.550957 267 33452ft 448kts
25-Sep-17 04:34 56.868173 -40.778676 266 33454ft 448kts
25-Sep-17 04:35 56.864469 -41.005610 267 33453ft 447kts
25-Sep-17 04:36 56.860399 -41.232371 267 33453ft 447kts
25-Sep-17 04:37 56.855905 -41.458931 267 33451ft 447kts
25-Sep-17 04:38 56.850995 -41.685499 266 33454ft 447kts
25-Sep-17 04:39 56.845699 -41.911235 266 33453ft 447kts
25-Sep-17 04:40 56.839965 -42.137890 266 33453ft 447kts
25-Sep-17 04:41 56.833822 -42.364438 266 33452ft 447kts
25-Sep-17 04:42 56.827292 -42.590134 266 33451ft 447kts
25-Sep-17 04:43 56.820328 -42.816703 265 33453ft 447kts
25-Sep-17 04:44 56.812977 -43.042135 265 33454ft 446kts
25-Sep-17 04:45 56.805206 -43.267948 266 33451ft 445kts
25-Sep-17 04:46 56.797083 -43.492561 266 33479ft 446kts
25-Sep-17 04:47 56.788533 -43.717571 266 33481ft 445kts
25-Sep-17 04:48 56.779568 -43.942701 266 33479ft 445kts
25-Sep-17 04:49 56.770204 -44.167536 265 33479ft 445kts
25-Sep-17 04:50 56.760446 -44.391996 265 33478ft 445kts
25-Sep-17 04:51 56.750257 -44.616938 266 33478ft 445kts
25-Sep-17 04:52 56.739696 -44.841129 265 33481ft 445kts
25-Sep-17 04:53 56.728693 -45.065512 265 33479ft 443kts
25-Sep-17 04:54 56.717405 -45.288216 266 33478ft 443kts
25-Sep-17 04:55 56.705691 -45.511102 266 33476ft 443kts
25-Sep-17 04:56 56.693547 -45.734362 265 33482ft 444kts
25-Sep-17 04:57 56.681024 -45.957157 265 33479ft 443kts
25-Sep-17 04:58 56.668119 -46.179536 265 33478ft 443kts
25-Sep-17 04:59 56.654780 -46.402355 265 33478ft 443kts
25-Sep-17 05:00 56.641094 -46.624198 265 33476ft 443kts
25-Sep-17 05:01 56.626989 -46.846193 264 33481ft 443kts
25-Sep-17 05:02 56.612543 -47.066810 265 33478ft 440kts
25-Sep-17 05:03 56.597773 -47.287282 265 33478ft 440kts
25-Sep-17 05:04 56.582572 -47.507682 265 33477ft 440kts
25-Sep-17 05:05 56.567041 -47.727024 264 33482ft 441kts
25-Sep-17 05:06 56.551036 -47.947452 264 33479ft 441kts
25-Sep-17 05:07 56.534679 -48.167139 264 33479ft 440kts
25-Sep-17 05:08 56.517956 -48.386372 264 33477ft 441kts
25-Sep-17 05:09 56.500807 -48.605916 264 33476ft 440kts
25-Sep-17 05:10 56.483593 -48.821267 264 33481ft 441kts
25-Sep-17 05:11 56.465680 -49.040077 264 33481ft 439kts
25-Sep-17 05:12 56.447564 -49.256618 266 33477ft 436kts
25-Sep-17 05:13 56.429116 -49.473126 265 33477ft 436kts
25-Sep-17 05:14 56.410318 -49.688670 265 33481ft 436kts
25-Sep-17 05:15 56.391051 -49.905072 265 33481ft 436kts
25-Sep-17 05:16 56.371468 -50.120555 265 33480ft 436kts
25-Sep-17 05:17 56.351484 -50.336117 265 33754ft 436kts
25-Sep-17 05:18 56.331188 -50.550820 265 34026ft 437kts
25-Sep-17 05:19 56.310408 -50.766427 264 34058ft 437kts
25-Sep-17 05:20 56.289352 -50.980456 265 34057ft 434kts
25-Sep-17 05:21 56.268138 -51.192486 266 34055ft 428kts
25-Sep-17 05:22 56.246748 -51.402877 266 34054ft 429kts
25-Sep-17 05:23 56.224925 -51.613458 266 34054ft 429kts
25-Sep-17 05:24 56.202770 -51.823479 265 34059ft 430kts
25-Sep-17 05:25 56.180225 -52.033606 265 34059ft 429kts
25-Sep-17 05:26 56.161113 -52.209001 265 34058ft 429kts
25-Sep-17 05:27 56.134039 -52.453360 265 34056ft 429kts
25-Sep-17 05:28 56.110464 -52.662433 265 34057ft 430kts
25-Sep-17 05:29 56.086427 -52.871976 265 34062ft 428kts
25-Sep-17 05:30 56.062359 -53.078434 266 34057ft 419kts
25-Sep-17 05:31 56.038277 -53.282493 266 34057ft 421kts
25-Sep-17 05:32 56.017893 -53.452566 266 34057ft 420kts
25-Sep-17 05:33 55.989000 -53.689979 265 34062ft 421kts
25-Sep-17 05:34 55.963790 -53.893817 265 34062ft 421kts
25-Sep-17 05:35 55.942500 -54.063734 265 34060ft 421kts
25-Sep-17 05:36 55.916674 -54.267156 265 34060ft 421kts
25-Sep-17 05:37 55.890519 -54.470232 265 34043ft 421kts
25-Sep-17 05:38 55.864383 -54.670283 264 34049ft 421kts
25-Sep-17 05:39 55.837551 -54.873001 264 34049ft 421kts
25-Sep-17 05:40 55.810427 -55.074641 265 34049ft 415kts
25-Sep-17 05:41 55.783848 -55.270014 267 34042ft 402kts
25-Sep-17 05:42 55.757196 -55.463814 267 34047ft 405kts
25-Sep-17 05:43 55.730144 -55.657616 266 34047ft 405kts
25-Sep-17 05:44 55.702749 -55.851500 266 34053ft 405kts
25-Sep-17 05:45 55.675046 -56.045096 266 34049ft 405kts
25-Sep-17 05:46 55.647014 -56.238636 266 34083ft 410kts
25-Sep-17 05:47 55.618428 -56.433516 266 34075ft 409kts
25-Sep-17 05:48 55.589682 -56.627136 266 34074ft 409kts
25-Sep-17 05:49 55.560376 -56.822100 265 34085ft 410kts
25-Sep-17 05:50 55.519145 -57.011736 252 34085ft 428kts
25-Sep-17 05:51 55.449669 -57.182874 247 34081ft 432kts
25-Sep-17 05:52 55.375161 -57.349081 246 34078ft 434kts
25-Sep-17 05:53 55.299529 -57.514609 246 34104ft 435kts
25-Sep-17 05:54 55.224073 -57.678467 246 34119ft 436kts
25-Sep-17 05:55 55.147509 -57.843543 245 34159ft 437kts
25-Sep-17 05:56 55.070934 -58.007551 246 34166ft 436kts
25-Sep-17 05:57 54.994245 -58.170610 247 34168ft 435kts
25-Sep-17 05:58 54.917816 -58.332088 248 34165ft 432kts
25-Sep-17 05:59 54.843076 -58.489097 249 34137ft 429kts
25-Sep-17 06:00 54.767058 -58.647757 249 34134ft 430kts
25-Sep-17 06:01 54.693670 -58.799933 248 34153ft 433kts
25-Sep-17 06:02 54.617090 -58.957636 248 34155ft 427kts
25-Sep-17 06:03 54.541460 -59.112453 248 34151ft 425kts
25-Sep-17 06:04 54.465649 -59.266659 248 34148ft 426kts
25-Sep-17 06:05 54.389375 -59.420843 248 34153ft 425kts
25-Sep-17 06:06 54.312772 -59.574692 248 34150ft 426kts
25-Sep-17 06:07 54.237523 -59.724918 247 34165ft 428kts
25-Sep-17 06:08 54.160509 -59.877672 247 34165ft 427kts
25-Sep-17 06:09 54.083375 -60.029760 247 34165ft 428kts
25-Sep-17 06:10 54.006061 -60.181252 247 34166ft 427kts
25-Sep-17 06:11 53.928600 -60.332079 247 34165ft 428kts
25-Sep-17 06:12 53.852232 -60.479870 247 34137ft 428kts
25-Sep-17 06:13 53.774262 -60.629849 247 34136ft 426kts
25-Sep-17 06:14 53.698090 -60.775561 246 34155ft 431kts
25-Sep-17 06:15 53.619571 -60.924757 246 34154ft 429kts
25-Sep-17 06:16 53.540886 -61.073392 246 34152ft 428kts
25-Sep-17 06:17 53.462441 -61.220721 246 34153ft 425kts
25-Sep-17 06:18 53.384960 -61.365350 246 34151ft 425kts
25-Sep-17 06:19 53.306356 -61.511206 246 34150ft 425kts
25-Sep-17 06:20 53.228025 -61.655711 245 34152ft 425kts
25-Sep-17 06:21 53.150006 -61.798779 245 34167ft 428kts
25-Sep-17 06:22 53.070649 -61.943587 244 34166ft 433kts
25-Sep-17 06:23 52.988721 -62.092098 243 34166ft 443kts
25-Sep-17 06:24 52.904985 -62.242815 243 34161ft 447kts
25-Sep-17 06:25 52.822278 -62.390848 243 34126ft 447kts
25-Sep-17 06:26 52.738098 -62.540628 243 34123ft 447kts
25-Sep-17 06:27 52.654220 -62.689006 242 34138ft 449kts
25-Sep-17 06:28 52.569135 -62.838560 242 34136ft 449kts
25-Sep-17 06:29 52.484215 -62.986956 242 34137ft 446kts
25-Sep-17 06:30 52.399315 -63.134416 241 34137ft 443kts
25-Sep-17 06:31 52.314723 -63.280454 241 34137ft 443kts
25-Sep-17 06:32 52.230103 -63.425674 241 34136ft 443kts
25-Sep-17 06:33 52.144965 -63.570930 241 34136ft 443kts
25-Sep-17 06:34 52.060400 -63.714383 240 34154ft 446kts
25-Sep-17 06:35 51.974843 -63.858605 241 34151ft 445kts
25-Sep-17 06:36 51.890316 -64.000311 240 34149ft 446kts
25-Sep-17 06:37 51.804526 -64.143297 241 34147ft 446kts
25-Sep-17 06:38 51.717904 -64.286815 241 34146ft 446kts
25-Sep-17 06:39 51.631355 -64.429388 241 34146ft 446kts
25-Sep-17 06:40 51.544716 -64.571284 241 34145ft 446kts
25-Sep-17 06:41 51.459361 -64.710305 240 34163ft 449kts
25-Sep-17 06:42 51.371986 -64.851757 239 34157ft 446kts
25-Sep-17 06:43 51.285418 -64.991141 238 34138ft 441kts
25-Sep-17 06:44 51.199172 -65.129187 238 34131ft 439kts
25-Sep-17 06:45 51.113392 -65.265710 238 34129ft 438kts
25-Sep-17 06:46 51.027430 -65.401782 238 34120ft 435kts
25-Sep-17 06:47 50.941711 -65.536907 236 34121ft 440kts
25-Sep-17 06:48 50.859279 -65.665936 234 34113ft 443kts
25-Sep-17 06:49 50.772012 -65.801726 234 34117ft 443kts
25-Sep-17 06:50 50.684195 -65.937729 234 34118ft 444kts
25-Sep-17 06:51 50.596234 -66.073204 234 34117ft 444kts
25-Sep-17 06:52 50.507863 -66.208562 234 34116ft 444kts
25-Sep-17 06:53 50.419592 -66.343026 234 34115ft 444kts
25-Sep-17 06:54 50.330875 -66.477430 234 34114ft 444kts
25-Sep-17 06:55 50.242278 -66.610921 234 34114ft 444kts
25-Sep-17 06:56 50.154993 -66.741731 233 34126ft 446kts
25-Sep-17 06:57 50.065645 -66.874899 233 34125ft 445kts
25-Sep-17 06:58 49.976157 -67.007586 233 34125ft 445kts
25-Sep-17 06:59 49.888875 -67.136313 232 34116ft 443kts
25-Sep-17 07:00 49.799875 -67.266837 232 34108ft 442kts
25-Sep-17 07:01 49.710614 -67.397051 232 34090ft 442kts
25-Sep-17 07:02 49.621008 -67.527094 232 34084ft 443kts
25-Sep-17 07:03 49.531813 -67.655858 231 34085ft 443kts
25-Sep-17 07:04 49.443557 -67.782607 231 34094ft 444kts
25-Sep-17 07:05 49.353626 -67.911093 231 34094ft 444kts
25-Sep-17 07:06 49.263549 -68.039110 231 34093ft 444kts
25-Sep-17 07:07 49.173164 -68.166898 231 34092ft 444kts
25-Sep-17 07:08 49.100846 -68.310659 251 34097ft 421kts
25-Sep-17 07:09 49.047264 -68.471188 248 34090ft 429kts
25-Sep-17 07:10 48.991076 -68.632523 247 34089ft 435kts
25-Sep-17 07:11 48.936223 -68.788325 246 34095ft 439kts
25-Sep-17 07:12 48.880074 -68.946843 246 34077ft 437kts
25-Sep-17 07:13 48.822682 -69.107913 245 34067ft 437kts
25-Sep-17 07:14 48.764948 -69.268803 245 34061ft 437kts
25-Sep-17 07:15 48.706992 -69.429392 245 34060ft 437kts
25-Sep-17 07:16 48.648692 -69.589959 245 34059ft 437kts
25-Sep-17 07:17 48.591358 -69.746911 244 34076ft 438kts
25-Sep-17 07:18 48.532528 -69.906994 244 34083ft 437kts
25-Sep-17 07:19 48.473765 -70.065918 244 34082ft 438kts
25-Sep-17 07:20 48.414872 -70.224242 244 34080ft 438kts
25-Sep-17 07:21 48.356002 -70.381558 244 34079ft 438kts
25-Sep-17 07:22 48.296835 -70.538734 244 34078ft 438kts
25-Sep-17 07:23 48.238782 -70.692037 243 34086ft 438kts
25-Sep-17 07:24 48.178800 -70.849555 243 34084ft 438kts
25-Sep-17 07:25 48.118391 -71.007277 242 34082ft 440kts
25-Sep-17 07:26 48.057705 -71.164664 242 34081ft 440kts
25-Sep-17 07:27 48.000296 -71.324922 249 34080ft 438kts
25-Sep-17 07:28 47.951996 -71.491121 248 34079ft 438kts
25-Sep-17 07:29 47.903198 -71.656203 247 34061ft 439kts
25-Sep-17 07:30 47.855860 -71.815119 247 34046ft 439kts
25-Sep-17 07:31 47.806158 -71.980865 247 34049ft 439kts
25-Sep-17 07:32 47.756240 -72.146220 247 34044ft 439kts
25-Sep-17 07:33 47.706132 -72.311107 247 34043ft 439kts
25-Sep-17 07:34 47.655796 -72.475647 247 34042ft 439kts
25-Sep-17 07:35 47.605321 -72.639562 247 34041ft 439kts
25-Sep-17 07:36 47.555224 -72.801194 247 34063ft 439kts
25-Sep-17 07:37 47.504084 -72.965129 247 34131ft 439kts
25-Sep-17 07:38 47.452739 -73.128743 246 34136ft 439kts
25-Sep-17 07:39 47.401150 -73.291927 246 34135ft 440kts
25-Sep-17 07:40 47.349325 -73.454832 246 34134ft 440kts
25-Sep-17 07:41 47.297188 -73.617698 246 34133ft 440kts
25-Sep-17 07:42 47.245252 -73.778904 245 34138ft 440kts
25-Sep-17 07:43 47.192612 -73.941274 245 34137ft 440kts
25-Sep-17 07:44 47.139895 -74.102856 245 34143ft 440kts
25-Sep-17 07:45 47.086880 -74.264333 245 34144ft 440kts
25-Sep-17 07:46 47.033960 -74.424947 243 34154ft 434kts
25-Sep-17 07:47 46.981098 -74.583631 242 34151ft 437kts
25-Sep-17 07:48 46.928613 -74.740507 241 34151ft 439kts
25-Sep-17 07:49 46.876351 -74.895823 241 34159ft 443kts
25-Sep-17 07:50 46.831324 -75.028860 241 34152ft 440kts
25-Sep-17 07:51 46.768058 -75.214721 241 34147ft 439kts
25-Sep-17 07:52 46.713494 -75.373970 241 34146ft 439kts
25-Sep-17 07:53 46.658940 -75.532221 241 34145ft 439kts
25-Sep-17 07:54 46.604709 -75.688592 241 34149ft 439kts
25-Sep-17 07:55 46.558837 -75.820155 241 34148ft 439kts
25-Sep-17 07:56 46.503454 -75.978124 241 34147ft 439kts
25-Sep-17 07:57 46.447978 -76.135408 241 34147ft 439kts
25-Sep-17 07:58 46.392444 -76.291938 241 34158ft 438kts
25-Sep-17 07:59 46.336606 -76.448402 241 34161ft 438kts
25-Sep-17 08:00 46.280377 -76.605033 241 34160ft 438kts
25-Sep-17 08:01 46.224830 -76.758875 240 34163ft 438kts
25-Sep-17 08:02 46.168320 -76.914414 241 34163ft 436kts
25-Sep-17 08:03 46.111996 -77.068598 242 34162ft 435kts
25-Sep-17 08:04 46.055658 -77.222053 242 34161ft 435kts
25-Sep-17 08:05 45.999118 -77.375117 242 34160ft 434kts
25-Sep-17 08:06 45.942191 -77.528347 242 34158ft 435kts
25-Sep-17 08:07 45.886436 -77.677570 241 34168ft 435kts
25-Sep-17 08:08 45.829802 -77.828331 241 34167ft 435kts
25-Sep-17 08:09 45.772234 -77.980718 241 34166ft 435kts
25-Sep-17 08:10 45.714708 -78.132152 241 34165ft 435kts
25-Sep-17 08:11 45.656821 -78.283701 241 34163ft 435kts
25-Sep-17 08:12 45.598678 -78.435082 241 34162ft 435kts
25-Sep-17 08:13 45.540378 -78.586031 241 34161ft 435kts
25-Sep-17 08:14 45.483944 -78.731372 240 34166ft 435kts
25-Sep-17 08:15 45.425269 -78.881669 240 34165ft 435kts
25-Sep-17 08:16 45.366324 -79.031870 240 34164ft 435kts
25-Sep-17 08:17 45.307529 -79.180876 240 34162ft 433kts
25-Sep-17 08:18 45.248481 -79.329676 240 34161ft 433kts
25-Sep-17 08:19 45.189320 -79.477991 240 34159ft 433kts
25-Sep-17 08:20 45.129824 -79.626360 240 34158ft 433kts
25-Sep-17 08:21 45.067749 -79.767486 232 34164ft 434kts
25-Sep-17 08:22 44.992006 -79.900228 230 34162ft 435kts
25-Sep-17 08:23 44.915103 -80.031571 230 34161ft 435kts
25-Sep-17 08:24 44.839383 -80.159985 230 34166ft 435kts
25-Sep-17 08:25 44.761843 -80.290852 230 34160ft 435kts
25-Sep-17 08:26 44.684526 -80.420745 230 34154ft 435kts
25-Sep-17 08:27 44.606832 -80.550675 230 34153ft 435kts
25-Sep-17 08:28 44.529890 -80.678761 230 34158ft 435kts
25-Sep-17 08:29 44.452140 -80.807614 230 34156ft 435kts
25-Sep-17 08:30 44.373887 -80.936718 229 34156ft 434kts
25-Sep-17 08:31 44.296118 -81.064446 229 34154ft 432kts
25-Sep-17 08:32 44.218325 -81.191639 229 34153ft 431kts
25-Sep-17 08:33 44.140490 -81.318326 229 34153ft 431kts
25-Sep-17 08:34 44.062692 -81.444402 229 34148ft 431kts
25-Sep-17 08:35 43.984377 -81.570763 229 34148ft 431kts
25-Sep-17 08:36 43.908769 -81.692207 229 34157ft 431kts
25-Sep-17 08:37 43.832120 -81.814820 229 34155ft 431kts
25-Sep-17 08:38 43.753800 -81.939561 229 34150ft 431kts
25-Sep-17 08:39 43.675080 -82.064398 229 34146ft 431kts
25-Sep-17 08:40 43.596449 -82.188558 229 34148ft 431kts
25-Sep-17 08:41 43.517389 -82.312845 229 34145ft 431kts
25-Sep-17 08:42 43.438369 -82.436533 229 34149ft 431kts
25-Sep-17 08:43 43.359160 -82.559986 229 34141ft 431kts
25-Sep-17 08:44 43.281212 -82.681088 229 34155ft 431kts
25-Sep-17 08:45 43.229284 -82.827934 247 34162ft 433kts
25-Sep-17 08:46 43.185711 -82.982747 247 34146ft 438kts
25-Sep-17 08:47 43.142004 -83.137174 246 34136ft 437kts
25-Sep-17 08:48 43.097918 -83.291963 246 34138ft 437kts
25-Sep-17 08:49 43.053626 -83.446552 246 34140ft 437kts
25-Sep-17 08:50 43.009321 -83.600275 246 34139ft 436kts
25-Sep-17 08:51 42.967782 -83.751184 253 34133ft 437kts
25-Sep-17 08:52 42.950670 -83.916064 258 34133ft 439kts
25-Sep-17 08:53 42.934599 -84.080468 258 34120ft 438kts
25-Sep-17 08:54 42.918379 -84.244660 258 34121ft 438kts
25-Sep-17 08:55 42.901915 -84.408911 258 34130ft 437kts
25-Sep-17 08:56 42.885323 -84.571997 258 34147ft 436kts
25-Sep-17 08:57 42.868635 -84.733957 257 34152ft 435kts
25-Sep-17 08:58 42.851587 -84.897129 257 34139ft 436kts
25-Sep-17 08:59 42.834291 -85.060103 257 34131ft 438kts
25-Sep-17 09:00 42.817302 -85.218145 256 33786ft 416kts
25-Sep-17 09:01 42.800013 -85.376494 257 31680ft 431kts
25-Sep-17 09:02 42.779455 -85.538955 252 28896ft 436kts
25-Sep-17 09:03 42.754428 -85.677502 252 27122ft 428kts
25-Sep-17 09:04 42.734689 -85.786810 251 25856ft 419kts
25-Sep-17 09:05 42.707274 -85.937650 252 24047ft 408kts
25-Sep-17 09:06 42.680060 -86.086084 252 22097ft 403kts
25-Sep-17 09:07 42.653378 -86.230639 252 20622ft 388kts
25-Sep-17 09:08 42.627224 -86.371232 252 19069ft 380kts
25-Sep-17 09:09 42.601521 -86.508440 252 17532ft 371kts
25-Sep-17 09:10 42.576177 -86.642743 252 16864ft 369kts
25-Sep-17 09:11 42.547036 -86.774654 246 15233ft 377kts
25-Sep-17 09:12 42.512984 -86.900260 247 13216ft 351kts
25-Sep-17 09:13 42.479297 -87.023971 248 11751ft 348kts
25-Sep-17 09:14 42.446985 -87.142191 248 10802ft 318kts
25-Sep-17 09:15 42.416077 -87.254688 247 10639ft 317kts
25-Sep-17 09:16 42.353564 -87.311546 187 10042ft 277kts
25-Sep-17 09:17 42.276961 -87.314990 178 9948ft 276kts
25-Sep-17 09:18 42.200346 -87.312172 178 9772ft 275kts
25-Sep-17 09:19 42.124015 -87.308782 178 9559ft 274kts
25-Sep-17 09:20 42.048015 -87.305368 178 9324ft 273kts
25-Sep-17 09:21 41.975396 -87.320493 225 8850ft 280kts
25-Sep-17 09:22 41.964820 -87.423260 270 7696ft 283kts
25-Sep-17 09:23 41.965849 -87.525760 269 6983ft 273kts
25-Sep-17 09:24 41.966191 -87.620002 269 4976ft 239kts
25-Sep-17 09:25 41.965951 -87.690516 268 3258ft 239kts
25-Sep-17 09:26 41.965848 -87.760839 269 2472ft 213kts
25-Sep-17 09:27 41.965833 -87.812975 270 1839ft 157kts
25-Sep-17 09:28 41.965805 -87.855464 270 1192ft 143kts
25-Sep-17 09:29 41.965780 -87.897347 270 651ft 138kts
25-Sep-17 09:30 41.966350 -87.918183 300 671ft 13kts
25-Sep-17 09:31 41.968832 -87.920902 354 674ft 12kts
25-Sep-17 09:32 41.970408 -87.918422 91 671ft 20kts
25-Sep-17 09:33 41.970421 -87.909377 92 671ft 34kts
25-Sep-17 09:34 41.970403 -87.899867 88 662ft 28kts
25-Sep-17 09:35 41.971018 -87.894340 357 658ft 9kts
25-Sep-17 09:36 41.972733 -87.893149 95 658ft 8kts
25-Sep-17 09:37 41.973510 -87.891542 35 654ft 0kts
25-Sep-17 09:38 41.973511 -87.891541 35 654ft 0kts
25-Sep-17 09:39 41.973511 -87.891541 35 654ft 0kts

Navigation Log

Ident Type
Flight plan parsing failed, navigation log unavailable